Time;durP1;ratioP1;P1;durP2;ratioP2;P2;SDS_P1;SDS_P2;PMS_P1;PMS_P2;Temp;Humidity;BMP_temperature;BMP_pressure;BME280_temperature;BME280_humidity;BME280_pressure;Samples;Min_cycle;Max_cycle;Signal;HPM_P1;HPM_P2
2021/07/05 00:00:12;;;;;;;11.88;5.30;;;;;;;18.70;100.00;100028.09;5197560;28;20029;-77
2021/07/05 00:02:43;;;;;;;7.43;4.80;;;;;;;18.71;100.00;100031.63;5196766;28;20112;-79
2021/07/05 00:05:14;;;;;;;9.82;5.47;;;;;;;18.68;100.00;100037.16;5197140;28;20072;-79
2021/07/05 00:07:47;;;;;;;9.93;5.25;;;;;;;18.72;100.00;100033.28;5200973;28;20029;-78
2021/07/05 00:10:22;;;;;;;14.40;5.30;;;;;;;18.65;100.00;100040.03;5197032;28;20021;-78
2021/07/05 00:12:54;;;;;;;7.73;4.87;;;;;;;18.67;100.00;100040.75;5191913;28;20030;-78
2021/07/05 00:15:29;;;;;;;7.82;5.10;;;;;;;18.69;100.00;100044.94;5198691;28;20280;-77
2021/07/05 00:18:03;;;;;;;7.90;4.85;;;;;;;18.54;100.00;100037.34;5194814;28;20592;-77
2021/07/05 00:20:37;;;;;;;9.35;5.10;;;;;;;18.49;100.00;100034.22;5196042;28;20495;-79
2021/07/05 00:23:08;;;;;;;6.97;4.97;;;;;;;18.51;100.00;100032.31;5192349;28;20057;-78
2021/07/05 00:25:39;;;;;;;7.13;5.20;;;;;;;18.58;100.00;100034.38;5197417;28;20040;-77
2021/07/05 00:28:09;;;;;;;10.93;5.03;;;;;;;18.62;100.00;100027.88;5189893;28;20234;-78
2021/07/05 00:30:40;;;;;;;9.13;4.78;;;;;;;18.67;100.00;100030.16;5186204;28;20061;-77
2021/07/05 00:33:10;;;;;;;6.22;4.97;;;;;;;18.69;100.00;100030.88;5196298;28;20038;-77
2021/07/05 00:35:41;;;;;;;6.97;4.93;;;;;;;18.59;100.00;100030.75;5197362;28;20030;-78
2021/07/05 00:38:11;;;;;;;9.02;5.28;;;;;;;18.69;100.00;100021.13;5197755;28;21230;-77
2021/07/05 00:40:41;;;;;;;7.70;4.95;;;;;;;18.36;100.00;100020.25;5195786;28;20105;-77
2021/07/05 00:43:12;;;;;;;9.90;4.90;;;;;;;18.29;100.00;100022.50;5197229;28;20140;-77
2021/07/05 00:45:42;;;;;;;9.45;5.13;;;;;;;18.28;100.00;100025.25;5196685;28;20042;-77
2021/07/05 00:48:14;;;;;;;10.73;5.05;;;;;;;18.50;100.00;100018.22;5196682;28;20025;-78
2021/07/05 00:50:44;;;;;;;8.13;4.40;;;;;;;18.57;100.00;100015.94;5194128;28;20468;-77
2021/07/05 00:53:15;;;;;;;7.13;4.60;;;;;;;18.42;100.00;100019.75;5191099;28;20045;-77
2021/07/05 00:55:46;;;;;;;10.85;5.13;;;;;;;18.17;100.00;100019.91;5195956;28;20280;-77
2021/07/05 00:58:17;;;;;;;9.95;4.40;;;;;;;18.01;100.00;100016.72;5195416;28;20444;-78
2021/07/05 01:00:48;;;;;;;11.10;4.30;;;;;;;18.04;100.00;100022.59;5194472;28;20021;-77
2021/07/05 01:03:18;;;;;;;11.68;4.25;;;;;;;17.72;100.00;100012.75;5192219;28;20487;-77
2021/07/05 01:05:48;;;;;;;8.85;4.15;;;;;;;17.55;100.00;100014.00;5197036;28;20100;-77
2021/07/05 01:08:19;;;;;;;8.35;4.50;;;;;;;17.61;100.00;100016.19;5194842;28;20030;-77
2021/07/05 01:10:49;;;;;;;6.47;4.43;;;;;;;17.72;100.00;100016.25;5197759;28;20112;-78
2021/07/05 01:13:20;;;;;;;6.68;4.72;;;;;;;17.88;100.00;100026.53;5194384;28;20073;-77
2021/07/05 01:15:50;;;;;;;8.40;4.82;;;;;;;17.91;100.00;100026.28;5196999;28;20029;-77
2021/07/05 01:18:21;;;;;;;7.40;4.97;;;;;;;18.01;100.00;100024.66;5194329;28;20080;-77
2021/07/05 01:20:51;;;;;;;9.80;5.22;;;;;;;17.96;100.00;100022.34;5196166;28;20044;-76
2021/07/05 01:23:21;;;;;;;7.07;5.30;;;;;;;17.95;100.00;100022.44;5189899;28;20076;-77
2021/07/05 01:25:52;;;;;;;12.63;5.15;;;;;;;18.11;100.00;100023.84;5197344;28;20038;-77
2021/07/05 01:28:23;;;;;;;9.13;5.20;;;;;;;18.17;100.00;100022.56;5189035;28;20025;-77
2021/07/05 01:30:55;;;;;;;8.68;5.18;;;;;;;18.17;100.00;100018.09;5193234;28;20021;-77
2021/07/05 01:33:26;;;;;;;6.80;5.15;;;;;;;18.25;100.00;100021.03;5191400;28;20063;-77
2021/07/05 01:35:56;;;;;;;6.50;4.93;;;;;;;18.20;100.00;100027.63;5195621;28;20030;-77
2021/07/05 01:38:27;;;;;;;7.25;4.85;;;;;;;18.19;100.00;100020.63;5193280;28;20026;-77
2021/07/05 01:41:01;;;;;;;9.57;4.60;;;;;;;18.21;100.00;100018.72;5196536;28;20018;-77
2021/07/05 01:43:32;;;;;;;10.70;4.88;;;;;;;18.28;100.00;100015.53;5193250;28;20048;-78
2021/07/05 01:46:02;;;;;;;8.57;5.03;;;;;;;18.31;100.00;100017.94;5196581;28;20025;-78
2021/07/05 01:48:33;;;;;;;9.65;4.35;;;;;;;18.36;100.00;100022.88;5194983;28;20080;-77
2021/07/05 01:51:03;;;;;;;6.25;4.35;;;;;;;18.31;100.00;100020.59;5194792;28;20018;-77
2021/07/05 01:53:34;;;;;;;10.93;4.82;;;;;;;18.05;100.00;100021.69;5192215;28;20101;-77
2021/07/05 01:56:05;;;;;;;6.57;4.40;;;;;;;18.13;100.00;100023.72;5196675;28;20022;-77
2021/07/05 01:58:35;;;;;;;10.65;4.50;;;;;;;18.11;100.00;100018.56;5195788;28;20079;-79
2021/07/05 02:01:06;;;;;;;8.50;4.82;;;;;;;18.11;100.00;100023.00;5192586;28;20220;-78
2021/07/05 02:03:36;;;;;;;8.90;4.10;;;;;;;18.03;100.00;100009.53;5194771;28;20045;-78
2021/07/05 02:06:06;;;;;;;9.63;4.78;;;;;;;18.01;100.00;100006.16;5196429;28;20052;-79
2021/07/05 02:08:37;;;;;;;5.63;4.03;;;;;;;18.10;100.00;100010.72;5196843;28;20029;-79
2021/07/05 02:11:08;;;;;;;7.13;4.35;;;;;;;18.11;100.00;100012.41;5196783;28;20088;-79
2021/07/05 02:13:38;;;;;;;7.60;4.10;;;;;;;18.14;100.00;100006.94;5197541;28;20132;-79
2021/07/05 02:16:09;;;;;;;12.95;4.55;;;;;;;18.04;100.00;100012.03;5196284;28;20029;-79
2021/07/05 02:18:39;;;;;;;7.82;4.40;;;;;;;18.02;100.00;100013.94;5198739;28;20042;-78
2021/07/05 02:21:09;;;;;;;8.23;3.92;;;;;;;18.22;100.00;100012.47;5197071;28;20022;-79
2021/07/05 02:23:40;;;;;;;8.48;3.92;;;;;;;18.16;100.00;100010.28;5192662;28;20025;-78
2021/07/05 02:26:10;;;;;;;11.15;4.00;;;;;;;18.08;100.00;100013.50;5193858;28;20025;-77
2021/07/05 02:28:41;;;;;;;8.80;4.00;;;;;;;17.98;100.00;100016.97;5194852;28;20084;-77
2021/07/05 02:31:11;;;;;;;6.82;3.75;;;;;;;18.06;100.00;100015.44;5189003;28;20021;-78
2021/07/05 02:33:42;;;;;;;8.00;4.03;;;;;;;18.15;100.00;100020.03;5192890;28;20037;-77
2021/07/05 02:36:13;;;;;;;9.13;3.65;;;;;;;18.14;100.00;100004.28;5196858;28;20029;-79
2021/07/05 02:38:43;;;;;;;6.70;3.70;;;;;;;18.05;100.00;99997.88;5197305;28;20630;-79
2021/07/05 02:41:14;;;;;;;12.43;4.10;;;;;;;17.98;100.00;100007.22;5195992;28;20025;-78
2021/07/05 02:43:44;;;;;;;12.68;4.10;;;;;;;17.96;100.00;99995.06;5264714;23;20037;-78
2021/07/05 02:46:14;;;;;;;9.15;4.32;;;;;;;17.87;100.00;99993.13;5217082;28;20063;-77
2021/07/05 02:48:45;;;;;;;9.60;4.00;;;;;;;17.92;100.00;99996.25;5215878;28;20473;-79
2021/07/05 02:51:15;;;;;;;7.00;3.53;;;;;;;18.05;100.00;99999.66;5213983;28;20637;-79
2021/07/05 02:53:46;;;;;;;8.35;4.10;;;;;;;17.99;100.00;99998.31;5201931;28;20109;-79
2021/07/05 02:56:16;;;;;;;8.20;3.75;;;;;;;18.01;100.00;99990.28;5195630;28;20049;-78
2021/07/05 02:58:46;;;;;;;8.40;3.85;;;;;;;18.00;100.00;99997.34;5197792;28;20124;-78
2021/07/05 03:01:18;;;;;;;7.38;4.00;;;;;;;18.02;100.00;100000.72;5191175;28;20021;-78
2021/07/05 03:03:49;;;;;;;7.38;3.38;;;;;;;18.02;100.00;100002.56;5196165;28;20035;-78
2021/07/05 03:06:19;;;;;;;7.53;3.50;;;;;;;18.09;100.00;100004.63;5194686;28;20025;-78
2021/07/05 03:08:49;;;;;;;7.03;3.72;;;;;;;18.09;100.00;100006.41;5197075;28;20021;-78
2021/07/05 03:11:20;;;;;;;8.10;3.45;;;;;;;18.15;100.00;100013.91;5192978;28;20541;-78
2021/07/05 03:13:50;;;;;;;8.23;3.67;;;;;;;18.25;100.00;100014.88;5197975;28;20026;-79
2021/07/05 03:16:20;;;;;;;8.70;3.97;;;;;;;18.13;100.00;100015.78;5195924;28;20085;-78
2021/07/05 03:18:51;;;;;;;8.18;3.38;;;;;;;18.00;100.00;100021.16;5197890;28;20036;-79
2021/07/05 03:21:21;;;;;;;13.15;4.28;;;;;;;17.86;100.00;100028.44;5193849;28;20034;-78
2021/07/05 03:23:51;;;;;;;9.00;4.15;;;;;;;17.71;100.00;100029.56;5193384;28;20093;-78
2021/07/05 03:26:22;;;;;;;10.25;4.30;;;;;;;17.80;100.00;100031.53;5193966;28;20371;-77
2021/07/05 03:28:52;;;;;;;9.45;4.22;;;;;;;17.74;100.00;100031.97;5197400;28;20064;-78
2021/07/05 03:31:22;;;;;;;14.52;4.68;;;;;;;17.53;100.00;100036.19;5190022;28;20480;-79
2021/07/05 03:33:53;;;;;;;10.00;4.65;;;;;;;17.60;100.00;100038.28;5196145;28;20277;-78
2021/07/05 03:36:23;;;;;;;9.00;4.18;;;;;;;17.64;100.00;100028.34;5190028;28;20037;-78
2021/07/05 03:38:53;;;;;;;11.47;4.60;;;;;;;17.51;100.00;100022.25;5197559;28;20025;-79
2021/07/05 03:41:23;;;;;;;11.93;4.35;;;;;;;17.61;100.00;100023.25;5194297;28;20277;-77
2021/07/05 03:43:54;;;;;;;10.73;4.40;;;;;;;17.68;100.00;100030.63;5197728;28;20112;-78
2021/07/05 03:46:24;;;;;;;11.73;4.40;;;;;;;17.64;100.00;100041.56;5193236;28;20287;-79
2021/07/05 03:48:54;;;;;;;10.65;4.53;;;;;;;17.65;100.00;100043.25;5197320;28;20646;-78
2021/07/05 03:51:24;;;;;;;7.88;4.22;;;;;;;17.66;100.00;100043.09;5192266;28;20022;-79
2021/07/05 03:53:55;;;;;;;7.63;4.03;;;;;;;17.65;100.00;100043.25;5193917;28;20067;-79
2021/07/05 03:56:25;;;;;;;8.68;4.43;;;;;;;17.63;100.00;100042.50;5191229;28;20284;-77
2021/07/05 03:58:55;;;;;;;9.48;4.10;;;;;;;17.69;100.00;100036.78;5186628;28;20035;-78
2021/07/05 04:01:26;;;;;;;12.02;4.30;;;;;;;17.66;100.00;100047.56;5189024;28;20037;-78
2021/07/05 04:03:56;;;;;;;9.80;4.00;;;;;;;17.66;100.00;100048.41;5195216;28;20056;-79
2021/07/05 04:06:28;;;;;;;9.95;3.80;;;;;;;17.80;100.00;100047.41;5194143;28;20123;-79
2021/07/05 04:09:00;;;;;;;11.25;4.03;;;;;;;17.93;100.00;100043.75;5194763;28;20056;-78
2021/07/05 04:11:31;;;;;;;9.30;3.50;;;;;;;17.99;100.00;100040.63;5195065;28;20030;-78
2021/07/05 04:14:01;;;;;;;9.68;3.78;;;;;;;18.02;100.00;100034.28;5195047;28;20053;-79
2021/07/05 04:16:31;;;;;;;5.95;3.60;;;;;;;17.98;100.00;100035.47;5195160;28;20101;-77
2021/07/05 04:19:02;;;;;;;8.00;3.53;;;;;;;18.09;100.00;100032.84;5197321;28;20025;-79
2021/07/05 04:21:32;;;;;;;9.15;3.40;;;;;;;18.00;100.00;100028.28;5193322;28;20038;-78
2021/07/05 04:24:03;;;;;;;11.90;3.78;;;;;;;18.25;100.00;100031.59;5196244;28;20025;-79
2021/07/05 04:26:33;;;;;;;8.68;3.20;;;;;;;18.12;100.00;100024.69;5199625;28;20025;-79
2021/07/05 04:29:04;;;;;;;10.65;3.30;;;;;;;18.18;100.00;100026.88;5200339;28;20017;-79
2021/07/05 04:31:34;;;;;;;10.98;3.90;;;;;;;18.23;100.00;100022.09;5193741;28;20029;-78
2021/07/05 04:34:04;;;;;;;9.23;3.42;;;;;;;18.43;100.00;100013.50;5198553;28;20485;-78
2021/07/05 04:36:36;;;;;;;8.95;3.55;;;;;;;18.29;100.00;100026.94;5199211;28;20029;-78
2021/07/05 04:39:08;;;;;;;10.15;3.10;;;;;;;18.35;100.00;100029.97;5197835;28;20036;-78
2021/07/05 04:41:38;;;;;;;10.70;3.40;;;;;;;18.21;100.00;100027.47;5197752;28;20422;-78
2021/07/05 04:44:12;;;;;;;9.35;3.20;;;;;;;18.41;100.00;100026.88;5196570;28;20037;-78
2021/07/05 04:46:49;;;;;;;8.48;3.50;;;;;;;18.57;100.00;100018.59;5192570;28;20036;-79
2021/07/05 04:49:20;;;;;;;11.57;3.80;;;;;;;18.18;100.00;100011.84;5198125;28;20021;-78
2021/07/05 04:51:51;;;;;;;9.98;3.70;;;;;;;18.16;100.00;100013.75;5194880;28;20067;-79
2021/07/05 04:54:21;;;;;;;9.23;3.78;;;;;;;18.38;100.00;100016.50;5195163;28;20026;-78
2021/07/05 04:56:52;;;;;;;13.05;3.78;;;;;;;18.32;100.00;100018.78;5198511;28;20121;-78
2021/07/05 04:59:22;;;;;;;10.52;3.60;;;;;;;18.26;100.00;100022.72;5196702;28;20043;-78
2021/07/05 05:01:53;;;;;;;8.57;3.50;;;;;;;18.55;100.00;100013.41;5195506;28;20128;-79
2021/07/05 05:04:23;;;;;;;9.52;3.33;;;;;;;19.09;100.00;100017.06;5192430;28;20112;-79
2021/07/05 05:06:53;;;;;;;9.23;3.23;;;;;;;19.35;100.00;100024.66;5196803;28;20053;-79
2021/07/05 05:09:24;;;;;;;10.18;3.28;;;;;;;19.63;100.00;100021.44;5196234;28;20354;-79
2021/07/05 05:11:54;;;;;;;8.38;3.17;;;;;;;20.07;97.21;100020.47;5196432;28;20052;-78
2021/07/05 05:14:25;;;;;;;9.52;3.03;;;;;;;20.51;96.01;100010.44;5196686;28;20033;-78
2021/07/05 05:16:55;;;;;;;9.70;2.83;;;;;;;21.80;93.25;100020.22;5193966;28;20040;-79
2021/07/05 05:19:26;;;;;;;7.18;3.10;;;;;;;22.82;84.10;100014.97;5192692;28;20029;-78
2021/07/05 05:21:56;;;;;;;9.65;3.00;;;;;;;24.56;78.95;100016.25;5190948;28;20365;-79
2021/07/05 05:24:27;;;;;;;6.30;2.60;;;;;;;26.77;70.73;100008.22;5190731;28;20029;-79
2021/07/05 05:26:57;;;;;;;8.90;2.67;;;;;;;26.02;70.82;100012.25;5199731;28;20025;-80
2021/07/05 05:29:27;;;;;;;8.23;2.47;;;;;;;27.27;67.78;100006.09;5199416;28;20395;-80
2021/07/05 05:31:57;;;;;;;8.50;2.70;;;;;;;25.67;72.10;100016.00;5195381;28;20280;-80
2021/07/05 05:34:28;;;;;;;5.13;2.28;;;;;;;24.98;73.46;100012.69;5196274;28;20053;-80
2021/07/05 05:36:58;;;;;;;5.07;2.20;;;;;;;25.49;71.67;100017.13;5200982;28;20022;-79
2021/07/05 05:39:28;;;;;;;7.23;2.10;;;;;;;27.28;66.75;100010.44;5196352;28;20269;-80
2021/07/05 05:41:59;;;;;;;4.28;2.20;;;;;;;27.81;65.61;100010.53;5197090;28;20658;-80
2021/07/05 05:44:31;;;;;;;7.10;2.20;;;;;;;29.08;63.89;100011.28;5197071;28;20316;-79
2021/07/05 05:47:01;;;;;;;3.53;1.98;;;;;;;28.57;65.34;100000.56;5192148;28;20108;-80
2021/07/05 05:49:31;;;;;;;7.05;2.47;;;;;;;29.34;62.41;100003.59;5193972;28;20109;-79
2021/07/05 05:52:02;;;;;;;10.33;2.67;;;;;;;27.10;66.16;100015.22;5190942;28;20028;-79
2021/07/05 05:54:32;;;;;;;4.13;2.40;;;;;;;27.07;66.56;100012.84;5191868;28;20296;-79
2021/07/05 05:57:03;;;;;;;4.65;2.50;;;;;;;25.05;73.53;100005.72;5196206;28;20028;-79
2021/07/05 05:59:36;;;;;;;4.75;2.20;;;;;;;25.54;72.22;100010.31;5196816;28;20055;-77
2021/07/05 06:02:07;;;;;;;7.35;2.40;;;;;;;25.54;72.24;100004.09;5188420;28;20075;-79
2021/07/05 06:04:37;;;;;;;4.60;2.50;;;;;;;24.60;73.16;99996.28;5195898;28;20021;-78
2021/07/05 06:07:07;;;;;;;6.47;2.43;;;;;;;24.13;75.40;100002.88;5194902;28;20036;-79
2021/07/05 06:09:38;;;;;;;5.00;2.20;;;;;;;25.22;72.74;100001.31;5193940;28;20484;-78
2021/07/05 06:12:08;;;;;;;4.40;2.38;;;;;;;24.85;74.24;100000.75;5196176;28;20280;-78
2021/07/05 06:14:39;;;;;;;6.13;2.45;;;;;;;25.39;72.99;99990.50;5192999;28;20510;-80
2021/07/05 06:17:09;;;;;;;4.68;2.47;;;;;;;24.84;74.44;99999.06;5196835;28;20113;-79
2021/07/05 06:19:41;;;;;;;4.95;2.10;;;;;;;24.88;74.95;99995.06;5197781;28;20108;-78
2021/07/05 06:22:16;;;;;;;5.78;2.15;;;;;;;24.90;74.88;99995.75;5193460;28;20025;-79
2021/07/05 06:24:47;;;;;;;5.15;2.17;;;;;;;25.18;73.51;100002.59;5196219;28;20538;-79
2021/07/05 06:27:18;;;;;;;6.35;2.20;;;;;;;25.08;74.20;100002.72;5196280;28;20076;-78
2021/07/05 06:29:48;;;;;;;5.10;2.50;;;;;;;25.29;71.91;100002.34;5192538;28;20478;-78
2021/07/05 06:32:18;;;;;;;6.07;2.60;;;;;;;26.08;70.02;100003.56;5189687;28;20105;-79
2021/07/05 06:34:49;;;;;;;6.20;2.70;;;;;;;25.62;70.40;100013.00;5194892;28;20467;-78
2021/07/05 06:37:19;;;;;;;5.22;2.15;;;;;;;26.27;71.63;100008.56;5199759;28;20284;-79
2021/07/05 06:39:49;;;;;;;4.27;2.30;;;;;;;25.20;73.43;100005.97;5198863;28;20406;-78
2021/07/05 06:42:19;;;;;;;5.55;2.58;;;;;;;24.59;73.57;100005.25;5194508;28;20312;-79
2021/07/05 06:44:50;;;;;;;4.10;2.43;;;;;;;24.72;73.72;100005.69;5199325;28;20060;-78
2021/07/05 06:47:20;;;;;;;3.78;2.10;;;;;;;24.97;74.38;100008.34;5194926;28;20273;-79
2021/07/05 06:49:51;;;;;;;4.40;2.20;;;;;;;25.53;71.52;100013.13;5199487;28;20029;-79
2021/07/05 06:52:21;;;;;;;5.22;2.28;;;;;;;25.31;71.66;100008.38;5190779;28;20780;-80
2021/07/05 06:54:51;;;;;;;8.20;2.40;;;;;;;24.80;72.44;100009.25;5190337;28;20098;-79
2021/07/05 06:57:30;;;;;;;5.80;1.97;;;;;;;24.97;72.71;100012.88;5198058;28;20027;-79
2021/07/05 07:00:06;;;;;;;4.60;1.80;;;;;;;25.29;72.06;99999.69;5195552;28;20280;-79
2021/07/05 07:02:38;;;;;;;4.20;1.98;;;;;;;25.50;71.61;99997.41;5193304;28;20096;-79
2021/07/05 07:05:12;;;;;;;6.55;2.30;;;;;;;25.06;72.51;99999.38;5193259;28;20022;-79
2021/07/05 07:07:46;;;;;;;4.95;2.10;;;;;;;26.59;68.94;99993.34;5183751;28;20463;-79
2021/07/05 07:10:18;;;;;;;7.25;2.08;;;;;;;27.76;64.92;99985.22;5188180;28;20081;-79
2021/07/05 07:12:48;;;;;;;6.63;2.30;;;;;;;27.43;65.68;99981.84;5186617;28;20033;-80
2021/07/05 07:15:23;;;;;;;6.68;2.60;;;;;;;28.23;64.55;99977.81;5190819;28;20025;-79
2021/07/05 07:20:33;;;;;;;7.93;2.90;;;;;;;29.06;59.05;99977.53;5188784;28;20028;-79
2021/07/05 07:23:03;;;;;;;6.70;2.80;;;;;;;29.49;60.89;99973.94;5185670;28;20045;-79
2021/07/05 07:25:33;;;;;;;7.30;3.03;;;;;;;29.39;61.01;99968.00;5185750;28;20040;-79
2021/07/05 07:28:04;;;;;;;5.50;2.10;;;;;;;28.79;61.88;99972.75;5191696;28;20285;-80
2021/07/05 07:30:34;;;;;;;6.18;2.38;;;;;;;28.90;61.89;99972.31;5193499;28;20061;-80
2021/07/05 07:33:05;;;;;;;6.55;2.42;;;;;;;27.99;60.68;99967.25;5195537;28;20026;-79
2021/07/05 07:35:35;;;;;;;6.82;2.20;;;;;;;28.89;60.89;99965.28;5196621;28;20021;-80
2021/07/05 07:38:05;;;;;;;6.63;2.30;;;;;;;28.52;60.60;99970.69;5197796;28;20111;-80
2021/07/05 07:40:41;;;;;;;6.45;1.98;;;;;;;28.56;61.63;99974.69;5195097;28;20111;-80
2021/07/05 07:43:11;;;;;;;;;;;;;;;28.08;62.97;99972.38;5194916;28;20032;-80
2021/07/05 07:45:41;;;;;;;7.27;2.20;;;;;;;28.20;61.54;99972.78;5194849;28;20295;-79
2021/07/05 07:48:11;;;;;;;3.92;2.00;;;;;;;28.67;62.41;99960.75;5196841;28;20037;-79
2021/07/05 07:50:42;;;;;;;4.40;2.00;;;;;;;29.25;60.67;99960.78;5197123;28;20040;-80
2021/07/05 07:53:12;;;;;;;4.90;1.80;;;;;;;29.98;59.08;99961.44;5191152;28;20055;-80
2021/07/05 07:55:42;;;;;;;3.38;1.40;;;;;;;30.32;58.11;99956.16;5195961;28;20276;-80
2021/07/05 07:58:13;;;;;;;3.40;1.30;;;;;;;30.99;57.10;99956.25;5197480;28;20499;-81
2021/07/05 08:00:43;;;;;;;6.47;1.33;;;;;;;31.15;55.45;99958.66;5200173;28;20091;-81
2021/07/05 08:03:13;;;;;;;3.90;1.30;;;;;;;28.53;57.74;99964.28;5196819;28;20268;-80
2021/07/05 08:05:44;;;;;;;3.63;1.40;;;;;;;29.52;56.94;99963.63;5200219;28;20272;-80
2021/07/05 08:08:15;;;;;;;4.03;1.40;;;;;;;28.09;61.61;99966.00;5200799;28;20040;-80
2021/07/05 08:10:46;;;;;;;4.47;1.50;;;;;;;27.70;60.32;99976.00;5201872;28;20021;-80
2021/07/05 08:13:16;;;;;;;4.38;1.70;;;;;;;29.23;60.73;99957.44;5199018;28;20033;-81
2021/07/05 08:15:52;;;;;;;2.70;1.60;;;;;;;28.47;58.41;99954.25;5196154;28;20278;-80
2021/07/05 08:18:22;;;;;;;4.00;1.50;;;;;;;29.40;59.23;99953.53;5195661;28;20949;-79
2021/07/05 08:20:52;;;;;;;4.60;1.67;;;;;;;27.85;62.30;99955.44;5199751;28;20136;-80
2021/07/05 08:23:23;;;;;;;4.75;1.50;;;;;;;28.31;62.90;99956.28;5190273;28;20619;-80
2021/07/05 08:25:53;;;;;;;5.20;1.60;;;;;;;28.58;59.71;99956.50;5204020;28;20024;-79
2021/07/05 08:28:24;;;;;;;5.63;1.47;;;;;;;27.41;65.00;99957.03;5200492;28;20437;-79
2021/07/05 08:30:56;;;;;;;2.53;1.30;;;;;;;29.35;58.87;99947.84;5196371;28;20350;-79
2021/07/05 08:33:27;;;;;;;3.28;1.10;;;;;;;29.05;60.40;99951.63;5200034;28;20040;-79
2021/07/05 08:35:58;;;;;;;6.07;1.73;;;;;;;29.26;58.56;99951.69;5195493;28;20022;-77
2021/07/05 08:38:29;;;;;;;5.03;1.40;;;;;;;28.44;60.10;99951.94;5197850;28;20060;-80
2021/07/05 08:41:01;;;;;;;4.47;1.50;;;;;;;27.75;63.58;99949.47;5196098;28;20242;-79
2021/07/05 08:43:31;;;;;;;3.85;1.65;;;;;;;27.27;64.38;99952.41;5217103;23;20051;-78
2021/07/05 08:46:04;;;;;;;4.18;1.50;;;;;;;27.30;64.95;99948.53;5218575;28;20144;-78
2021/07/05 08:48:39;;;;;;;2.75;1.20;;;;;;;26.32;64.60;99952.66;5214020;28;20231;-78
2021/07/05 08:51:11;;;;;;;;;;;;;;;26.28;64.30;99946.78;5216110;28;20026;-77
2021/07/05 08:53:42;;;;;;;5.30;1.08;;;;;;;25.93;65.83;99952.50;5208020;28;19952;-78
2021/07/05 08:56:13;;;;;;;2.05;0.80;;;;;;;25.42;66.97;99955.38;5197019;28;20503;-77
2021/07/05 08:58:45;;;;;;;2.95;0.85;;;;;;;25.52;69.49;99957.91;5194286;28;20037;-76
2021/07/05 09:01:15;;;;;;;1.77;0.70;;;;;;;24.93;69.44;99961.53;5188951;28;20109;-77
2021/07/05 09:03:48;;;;;;;1.90;0.50;;;;;;;24.96;68.54;99955.03;5193087;28;20096;-76
2021/07/05 09:06:21;;;;;;;1.92;0.57;;;;;;;24.47;68.86;99961.06;5194213;28;20041;-77
2021/07/05 09:08:57;;;;;;;1.42;0.70;;;;;;;24.20;70.29;99963.03;5190494;28;20029;-77
2021/07/05 09:11:44;;;;;;;2.47;0.60;;;;;;;24.89;67.33;99956.66;5189647;28;20061;-77
2021/07/05 09:14:23;;;;;;;1.55;0.80;;;;;;;24.95;67.09;99954.16;5193453;28;20025;-77
2021/07/05 09:16:53;;;;;;;2.70;0.90;;;;;;;24.89;67.78;99962.00;5187557;28;20030;-77
2021/07/05 09:19:26;;;;;;;5.22;0.80;;;;;;;24.87;68.91;99967.53;5187630;28;20040;-77
2021/07/05 09:22:00;;;;;;;1.50;0.77;;;;;;;25.14;68.20;99961.94;5188040;28;20373;-77
2021/07/05 09:24:41;;;;;;;2.58;1.00;;;;;;;25.18;68.89;99966.00;5188469;28;20032;-77
2021/07/05 09:27:19;;;;;;;7.43;1.55;;;;;;;25.27;71.27;99969.53;5194618;28;20201;-77
2021/07/05 09:29:50;;;;;;;6.03;1.40;;;;;;;24.98;71.35;99967.22;5193412;28;20029;-80
2021/07/05 09:32:29;;;;;;;3.85;1.30;;;;;;;24.77;71.25;99963.28;5192737;28;20028;-79
2021/07/05 09:35:12;;;;;;;2.70;1.15;;;;;;;24.63;71.70;99963.00;5183535;28;20415;-79
2021/07/05 09:37:54;;;;;;;4.43;1.05;;;;;;;24.31;74.36;99963.63;5187748;28;20117;-79
2021/07/05 09:40:28;;;;;;;5.80;1.10;;;;;;;23.98;74.40;99969.69;5190558;28;20030;-80
2021/07/05 09:42:59;;;;;;;5.65;1.13;;;;;;;24.28;74.42;99971.94;5188646;28;20034;-79
2021/07/05 09:45:32;;;;;;;4.47;1.33;;;;;;;23.92;77.47;99978.31;5190796;28;20018;-79
2021/07/05 09:48:19;;;;;;;3.88;1.50;;;;;;;24.07;76.67;99982.09;5194221;28;20021;-79
2021/07/05 09:51:10;;;;;;;4.18;1.10;;;;;;;23.85;77.48;99976.41;5193466;28;20056;-79
2021/07/05 09:53:44;;;;;;;3.55;1.10;;;;;;;23.85;76.30;99979.91;5188079;28;20044;-79
2021/07/05 09:56:18;;;;;;;4.10;1.00;;;;;;;23.72;77.92;99979.41;5192575;28;20467;-79
2021/07/05 09:58:50;;;;;;;5.38;1.00;;;;;;;23.53;77.67;99979.56;5194991;28;20081;-79
2021/07/05 10:01:38;;;;;;;5.32;0.90;;;;;;;23.51;79.79;99989.53;5188604;28;20586;-79
2021/07/05 10:04:11;;;;;;;2.05;1.00;;;;;;;23.86;78.54;99988.78;5192879;28;20099;-80
2021/07/05 10:06:46;;;;;;;2.78;0.90;;;;;;;23.94;77.43;99987.03;5192508;28;20034;-77
2021/07/05 10:09:50;;;;;;;2.03;0.85;;;;;;;23.72;78.79;99995.44;5194198;28;20026;-78
2021/07/05 10:12:26;;;;;;;3.88;0.90;;;;;;;23.73;77.42;99986.44;5185394;28;20034;-77
2021/07/05 10:15:08;;;;;;;2.10;0.80;;;;;;;24.15;78.18;100003.56;5187669;28;20026;-77
2021/07/05 10:17:45;;;;;;;3.53;0.95;;;;;;;23.52;78.50;100001.06;5192328;28;20029;-77
2021/07/05 10:20:27;;;;;;;3.45;1.00;;;;;;;23.52;77.13;100004.56;5191384;28;20037;-78
2021/07/05 10:23:03;;;;;;;6.50;1.13;;;;;;;23.64;76.62;100014.03;5189816;28;20088;-77
2021/07/05 10:25:37;;;;;;;2.55;0.90;;;;;;;23.57;78.37;100010.28;5192423;28;20025;-77
2021/07/05 10:28:08;;;;;;;3.53;1.10;;;;;;;23.99;77.55;100005.22;5191202;28;20054;-77
2021/07/05 10:30:39;;;;;;;2.58;1.02;;;;;;;24.73;75.28;100002.00;5191122;28;20058;-77
2021/07/05 10:33:10;;;;;;;2.75;0.90;;;;;;;25.33;72.55;99995.66;5188362;28;20040;-78
2021/07/05 10:35:43;;;;;;;3.90;0.90;;;;;;;25.78;70.57;100005.00;5191425;28;20030;-78
2021/07/05 10:38:21;;;;;;;3.92;0.90;;;;;;;26.25;70.84;99989.16;5189007;28;20720;-79
2021/07/05 10:40:54;;;;;;;3.13;1.00;;;;;;;26.39;73.30;99986.66;5193214;28;20091;-80
2021/07/05 10:43:58;;;;;;;4.22;1.10;;;;;;;25.80;69.37;99994.13;5186981;28;20471;-79
2021/07/05 10:46:57;;;;;;;4.70;1.20;;;;;;;24.74;73.18;99993.00;5193932;28;20034;-80
2021/07/05 10:49:27;;;;;;;2.88;1.00;;;;;;;24.71;74.30;99993.31;5189613;28;20038;-80
2021/07/05 10:52:06;;;;;;;2.50;0.90;;;;;;;24.58;74.99;99992.88;5187829;28;20076;-79
2021/07/05 10:54:50;;;;;;;2.75;0.95;;;;;;;24.24;76.96;100002.63;5187991;28;20025;-79
2021/07/05 10:57:46;;;;;;;2.08;1.35;;;;;;;23.52;77.55;100006.41;5194537;28;20565;-80
2021/07/05 11:00:20;;;;;;;2.78;1.20;;;;;;;23.14;79.75;100010.09;5189618;28;20029;-80
2021/07/05 11:02:53;;;;;;;2.95;1.00;;;;;;;23.03;82.01;100018.25;5190469;28;20111;-79
2021/07/05 11:05:35;;;;;;;3.10;1.10;;;;;;;22.77;85.23;100029.72;5184088;28;20025;-80
2021/07/05 11:08:23;;;;;;;4.97;1.27;;;;;;;22.84;87.23;100026.31;5191312;28;20057;-79
2021/07/05 11:11:16;;;;;;;5.60;1.65;;;;;;;22.67;91.15;100028.91;5186869;28;20144;-79
2021/07/05 11:13:48;;;;;;;5.47;1.35;;;;;;;22.58;91.85;100029.75;5190799;28;20022;-79
2021/07/05 11:16:18;;;;;;;3.03;1.40;;;;;;;22.51;92.38;100038.47;5189954;28;20121;-78
2021/07/05 11:18:54;;;;;;;6.00;1.40;;;;;;;22.76;93.14;100039.53;5191067;28;20100;-78
2021/07/05 11:21:24;;;;;;;5.10;1.35;;;;;;;22.77;93.89;100040.38;5191846;28;20024;-80
2021/07/05 11:26:35;;;;;;;5.00;1.50;;;;;;;22.08;98.69;100038.06;5190243;28;20284;-81
2021/07/05 11:29:14;;;;;;;4.05;1.40;;;;;;;22.19;98.57;100032.56;5190970;28;20050;-80
2021/07/05 11:31:57;;;;;;;3.97;1.38;;;;;;;22.62;98.10;100031.13;5187328;28;20033;-79
2021/07/05 11:34:29;;;;;;;5.93;1.83;;;;;;;22.21;99.78;100027.94;5180380;28;20017;-78
2021/07/05 11:37:28;;;;;;;3.50;1.45;;;;;;;22.46;100.00;100032.72;5194917;28;20033;-81
2021/07/05 11:39:59;;;;;;;4.00;1.30;;;;;;;22.26;99.09;100023.06;5189641;28;20060;-79
2021/07/05 11:42:32;;;;;;;2.65;1.20;;;;;;;22.69;96.70;100027.75;5186072;28;20062;-79
2021/07/05 11:45:03;;;;;;;1.85;0.90;;;;;;;22.46;96.29;100030.06;5189399;28;20029;-79
2021/07/05 11:47:36;;;;;;;2.15;0.90;;;;;;;22.51;94.24;100031.31;5191095;28;20033;-79
2021/07/05 11:50:21;;;;;;;0.88;0.68;;;;;;;23.04;92.99;100025.25;5191323;28;20025;-81
2021/07/05 11:53:02;;;;;;;3.00;0.97;;;;;;;22.85;94.93;100024.50;5187670;28;20044;-79